createdAt,value
2022-10-22T00:00:47.617Z,54.14
2022-10-22T00:05:46.850Z,53.94
2022-10-22T00:10:47.104Z,54.04
2022-10-22T00:15:45.303Z,54.04
2022-10-22T00:20:45.495Z,53.84
2022-10-22T00:25:43.773Z,53.44
2022-10-22T00:30:43.052Z,54.06
2022-10-22T00:35:42.685Z,52.32
2022-10-22T00:40:42.480Z,52.72
2022-10-22T00:45:42.042Z,51.92
2022-10-22T00:50:39.817Z,52.92
2022-10-22T00:55:39.076Z,52.44
2022-10-22T01:00:38.299Z,51.29
2022-10-22T01:05:37.512Z,49.98
2022-10-22T01:10:36.725Z,49.06
2022-10-22T01:15:36.058Z,48.86
2022-10-22T01:20:35.241Z,49.68
2022-10-22T01:25:35.444Z,49.58
2022-10-22T01:30:33.621Z,49.30
2022-10-22T01:40:32.088Z,49.83
2022-10-22T01:45:30.311Z,49.35
2022-10-22T01:50:30.948Z,50.30
2022-10-22T01:55:29.787Z,49.98
2022-10-22T02:00:29.031Z,50.20
2022-10-22T02:05:28.265Z,49.45
2022-10-22T02:10:29.453Z,49.35
2022-10-22T02:15:26.924Z,49.23
2022-10-22T02:20:26.978Z,49.13
2022-10-22T02:25:26.162Z,49.45
2022-10-22T02:30:24.339Z,49.75
2022-10-22T02:35:24.558Z,50.07
2022-10-22T02:40:22.747Z,50.27
2022-10-22T02:45:22.255Z,50.67
2022-10-22T02:50:25.375Z,51.22
2022-10-22T02:55:20.655Z,51.54
2022-10-22T03:01:00.920Z,51.20
2022-10-22T03:05:19.079Z,51.12
2022-10-22T03:10:18.438Z,50.20
2022-10-22T03:15:18.707Z,49.57
2022-10-22T03:20:17.067Z,49.25
2022-10-22T03:25:16.550Z,49.03
2022-10-22T03:30:15.351Z,48.73
2022-10-22T03:35:15.651Z,48.43
2022-10-22T03:40:13.889Z,49.15
2022-10-22T03:45:13.622Z,48.65
2022-10-22T03:50:12.565Z,49.35
2022-10-22T03:55:11.871Z,49.15
2022-10-22T04:00:10.872Z,48.95
2022-10-22T04:05:10.167Z,48.95
2022-10-22T04:10:08.354Z,49.57
2022-10-22T04:15:09.580Z,49.15
2022-10-22T04:20:07.981Z,49.25
2022-10-22T04:25:06.969Z,48.41
2022-10-22T04:30:06.306Z,47.89
2022-10-22T04:35:05.403Z,47.39
2022-10-22T04:40:04.621Z,47.39
2022-10-22T04:45:05.126Z,47.07
2022-10-22T04:50:02.436Z,46.97
2022-10-22T04:55:01.693Z,46.77
2022-10-22T05:00:02.938Z,46.89
2022-10-22T05:05:01.023Z,47.49
2022-10-22T05:10:00.362Z,47.49
2022-10-22T05:14:59.399Z,47.39
2022-10-22T05:19:58.548Z,46.89
2022-10-22T05:24:57.698Z,46.79
2022-10-22T05:29:56.923Z,46.47
2022-10-22T05:34:56.092Z,46.05
2022-10-22T05:40:06.483Z,45.63
2022-10-22T05:44:54.537Z,45.43
2022-10-22T05:49:53.674Z,45.53
2022-10-22T05:54:53.280Z,45.85
2022-10-22T05:59:53.255Z,45.55
2022-10-22T06:04:51.392Z,45.15
2022-10-22T06:09:50.550Z,45.26
2022-10-22T06:14:50.858Z,44.84
2022-10-22T06:19:49.182Z,44.42
2022-10-22T06:24:49.044Z,44.52
2022-10-22T06:29:47.808Z,44.10
2022-10-22T06:34:46.961Z,44.00
2022-10-22T06:39:46.543Z,43.90
2022-10-22T06:44:45.219Z,44.10
2022-10-22T06:49:44.521Z,44.32
2022-10-22T06:54:43.920Z,44.74
2022-10-22T06:59:43.041Z,44.74
2022-10-22T07:04:43.386Z,44.24
2022-10-22T07:09:41.864Z,44.62
2022-10-22T07:14:42.069Z,44.00
2022-10-22T07:19:39.800Z,43.28
2022-10-22T07:24:40.524Z,43.28
2022-10-22T07:29:40.840Z,43.10
2022-10-22T07:34:40.558Z,43.50
2022-10-22T07:39:37.421Z,43.18
2022-10-22T07:44:36.652Z,41.75
2022-10-22T07:49:35.744Z,42.45
2022-10-22T07:54:35.062Z,41.41
2022-10-22T07:59:34.386Z,41.31
2022-10-22T08:04:33.724Z,41.20
2022-10-22T08:09:35.010Z,41.08
2022-10-22T08:14:32.284Z,40.17
2022-10-22T08:19:31.581Z,39.99
2022-10-22T08:24:31.851Z,40.41
2022-10-22T08:29:31.168Z,41.30
2022-10-22T08:34:29.466Z,40.50
2022-10-22T08:39:29.784Z,41.02
2022-10-22T08:44:28.086Z,41.49
2022-10-22T08:49:26.376Z,39.69
2022-10-22T08:54:27.693Z,39.56
2022-10-22T08:59:26.020Z,39.26
2022-10-22T09:04:25.415Z,39.65
2022-10-22T09:09:24.578Z,39.16
2022-10-22T09:14:23.897Z,39.97
2022-10-22T09:19:23.196Z,40.39
2022-10-22T09:24:22.479Z,40.29
2022-10-22T09:29:21.764Z,40.47
2022-10-22T09:34:23.089Z,40.48
2022-10-22T09:39:20.384Z,39.87
2022-10-22T09:44:20.638Z,39.14
2022-10-22T09:49:18.907Z,37.92
2022-10-22T09:54:19.191Z,38.12
2022-10-22T09:59:16.447Z,38.53
2022-10-22T10:04:17.781Z,38.02
2022-10-22T10:09:16.964Z,37.30
2022-10-22T10:14:15.158Z,37.51
2022-10-22T10:19:14.464Z,37.30
2022-10-22T10:24:14.745Z,36.17
2022-10-22T10:29:13.032Z,36.48
2022-10-22T10:34:12.351Z,36.88
2022-10-22T10:39:12.678Z,37.60
2022-10-22T10:44:11.997Z,37.92
2022-10-22T10:49:11.303Z,37.70
2022-10-22T10:54:09.590Z,37.92
2022-10-22T10:59:08.898Z,37.51
2022-10-22T11:04:09.202Z,36.98
2022-10-22T11:09:07.600Z,36.68
2022-10-22T11:14:07.750Z,36.80
2022-10-22T11:19:06.067Z,36.19
2022-10-22T11:24:05.368Z,37.01
2022-10-22T11:29:05.668Z,37.45
2022-10-22T11:34:28.463Z,37.96
2022-10-22T11:39:03.270Z,37.76
2022-10-22T11:44:03.419Z,37.56
2022-10-22T11:49:02.731Z,37.56
2022-10-22T11:54:01.028Z,37.66
2022-10-22T11:59:00.372Z,38.15
2022-10-22T12:03:59.582Z,38.27
2022-10-22T12:08:59.799Z,38.57
2022-10-22T12:13:57.983Z,38.15
2022-10-22T12:18:57.173Z,38.25
2022-10-22T12:23:57.365Z,38.45
2022-10-22T12:28:55.556Z,38.35
2022-10-22T12:33:54.745Z,37.94
2022-10-22T12:38:54.957Z,38.65
2022-10-22T12:43:53.128Z,38.84
2022-10-22T12:48:53.323Z,38.75
2022-10-22T12:53:51.505Z,38.45
2022-10-22T12:58:51.780Z,37.76
2022-10-22T13:03:49.984Z,37.85
2022-10-22T13:08:49.194Z,38.06
2022-10-22T13:13:49.427Z,38.15
2022-10-22T13:18:48.596Z,38.96
2022-10-22T13:23:46.757Z,38.27
2022-10-22T13:28:45.956Z,38.67
2022-10-22T13:33:45.110Z,38.25
2022-10-22T13:38:44.306Z,38.75
2022-10-22T13:43:43.491Z,38.65
2022-10-22T13:48:43.670Z,38.37
2022-10-22T13:53:43.851Z,38.57
2022-10-22T13:58:41.016Z,38.98
2022-10-22T14:03:40.185Z,39.18
2022-10-22T14:08:39.431Z,38.39
2022-10-22T14:13:38.615Z,38.67
2022-10-22T14:18:39.810Z,37.98
2022-10-22T14:23:37.010Z,38.45
2022-10-22T14:28:41.193Z,38.07
2022-10-22T14:33:36.530Z,38.17
2022-10-22T14:38:34.541Z,38.70
2022-10-22T14:43:34.938Z,39.37
2022-10-22T14:48:32.920Z,39.28
2022-10-22T14:53:32.131Z,39.67
2022-10-22T14:58:31.336Z,39.87
2022-10-22T15:03:30.617Z,39.97
2022-10-22T15:08:29.810Z,40.58
2022-10-22T15:13:29.995Z,40.58
2022-10-22T15:18:30.195Z,40.90
2022-10-22T15:23:28.365Z,41.22
2022-10-22T15:28:26.552Z,41.52
2022-10-22T15:33:25.746Z,41.52
2022-10-22T15:38:25.063Z,41.93
2022-10-22T15:43:25.261Z,42.03
2022-10-22T15:48:23.643Z,42.45
2022-10-22T15:53:23.661Z,42.45
2022-10-22T15:58:21.858Z,43.14
2022-10-22T16:03:21.237Z,43.04
2022-10-22T16:08:22.308Z,42.85
2022-10-22T16:13:20.474Z,43.56
2022-10-22T16:18:20.657Z,44.81
2022-10-22T16:23:19.214Z,45.33
2022-10-22T16:28:17.104Z,44.49
2022-10-22T16:33:16.297Z,45.31
2022-10-22T16:38:15.466Z,45.01
2022-10-22T16:43:14.678Z,45.11
2022-10-22T16:48:15.188Z,43.68
2022-10-22T16:53:14.040Z,43.66
2022-10-22T16:58:12.350Z,44.00
2022-10-22T17:03:12.777Z,43.90
2022-10-22T17:08:10.709Z,44.10
2022-10-22T17:13:11.309Z,44.42
2022-10-22T17:18:09.421Z,44.02
2022-10-22T17:23:09.766Z,44.42
2022-10-22T17:28:08.038Z,44.10
2022-10-22T17:33:07.132Z,42.94
2022-10-22T17:38:10.402Z,41.41
2022-10-22T17:43:05.965Z,41.91
2022-10-22T17:48:04.979Z,41.79
2022-10-22T17:53:04.959Z,40.47
2022-10-22T17:58:04.396Z,40.05
2022-10-22T18:03:03.428Z,39.85
2022-10-22T18:08:05.531Z,39.75
2022-10-22T18:13:01.224Z,39.16
2022-10-22T18:18:01.452Z,39.67
2022-10-22T18:23:00.608Z,39.34
2022-10-22T18:28:03.813Z,38.43
2022-10-22T18:32:58.208Z,39.14
2022-10-22T18:37:58.476Z,38.75
2022-10-22T18:42:56.419Z,39.04
2022-10-22T18:47:56.982Z,39.36
2022-10-22T18:52:55.208Z,39.04
2022-10-22T18:57:54.484Z,38.12
2022-10-22T19:02:55.718Z,38.63
2022-10-22T19:07:53.794Z,38.73
2022-10-22T19:12:51.959Z,38.65
2022-10-22T19:17:51.072Z,38.84
2022-10-22T19:22:52.606Z,38.65
2022-10-22T19:27:49.577Z,38.23
2022-10-22T19:32:48.767Z,37.11
2022-10-22T19:37:48.593Z,36.91
2022-10-22T19:42:48.260Z,37.64
2022-10-22T19:47:46.325Z,38.15
2022-10-22T19:52:46.743Z,37.62
2022-10-22T19:57:46.956Z,37.62
2022-10-22T20:02:45.962Z,37.72
2022-10-22T20:07:43.610Z,37.30
2022-10-22T20:12:43.735Z,37.43
2022-10-22T20:17:45.569Z,36.82
2022-10-22T20:22:42.175Z,37.62
2022-10-22T20:27:41.317Z,37.94
2022-10-22T20:32:39.839Z,37.23
2022-10-22T20:37:38.861Z,37.41
2022-10-22T20:42:38.051Z,37.41
2022-10-22T20:47:51.133Z,37.30
2022-10-22T20:52:38.801Z,37.43
2022-10-22T20:57:35.827Z,37.23
2022-10-22T21:02:35.305Z,36.82
2022-10-22T21:07:34.314Z,35.28
2022-10-22T21:12:33.503Z,35.69
2022-10-22T21:17:33.714Z,35.61
2022-10-22T21:22:31.913Z,36.00
2022-10-22T21:27:31.077Z,35.71
2022-10-22T21:32:30.286Z,34.91
2022-10-22T21:37:30.491Z,34.91
2022-10-22T21:42:28.665Z,34.69
2022-10-22T21:47:28.879Z,35.00
2022-10-22T21:52:27.031Z,35.10
2022-10-22T21:57:27.273Z,34.81
2022-10-22T22:02:25.466Z,35.12
2022-10-22T22:07:24.654Z,34.91
2022-10-22T22:12:23.843Z,35.31
2022-10-22T22:17:23.124Z,34.49
2022-10-22T22:22:22.419Z,34.18
2022-10-22T22:27:21.563Z,34.28
2022-10-22T22:32:21.761Z,34.18
2022-10-22T22:37:19.895Z,34.59
2022-10-22T22:42:19.059Z,34.69
2022-10-22T22:47:18.189Z,35.00
2022-10-22T22:52:18.393Z,34.92
2022-10-22T22:57:16.506Z,35.40
2022-10-22T23:02:16.824Z,34.49
2022-10-22T23:07:15.134Z,34.28
2022-10-22T23:12:15.278Z,32.80
2022-10-22T23:17:14.438Z,34.10
2022-10-22T23:22:14.757Z,35.00
2022-10-22T23:27:14.065Z,35.61
2022-10-22T23:32:12.392Z,35.73
2022-10-22T23:37:10.725Z,35.63
2022-10-22T23:42:10.835Z,36.06
2022-10-22T23:47:09.152Z,36.08
2022-10-22T23:52:08.484Z,36.08
2022-10-22T23:57:07.825Z,36.61
